KFFC

Atlanta Regional Falcon Field Airport

Atlanta, Georgia, USA
METAR KFFC 181053Z AUTO 00000KT 10SM SCT085 13/09 A3031 RMK AO2 SLP264 T01330089
Observed Flight Rules
Oct-18 @ 10:53 UTC (38 minutes ago) Visual Flight Rules
Visibility Clouds
10 miles
  • Scattered at 8,500' AGL
Temperatures Readings
Current 13°C / 55°F
Dewpoint 9°C / 48°F
Humidity 77%
Altimeter 30.31" Hg
Pressure 1026.4 hPa
Elevation 262
METAR KFFC 181053Z AUTO 00000KT 10SM SCT085 13/09 A3031 RMK AO2 SLP264 T01330089
Observed Flight Rules
Oct-18 @ 10:53 UTC
(38 minutes ago)
VFR
Clouds
  • Scattered at 8,500' AGL
Temperature Dewpoint
13°C / 55°F 9°C / 48°F
Humidity Altimeter Pressure
77% 30.31" Hg 1026.4 hPa